createdAt,value
2022-12-18T00:00:45.464Z,101774.20
2022-12-18T00:06:10.022Z,101775.40
2022-12-18T00:11:20.660Z,101788.20
2022-12-18T00:16:27.351Z,101785.40
2022-12-18T00:21:32.380Z,101789.60
2022-12-18T00:26:37.727Z,101806.80
2022-12-18T00:31:43.364Z,101818.20
2022-12-18T00:36:49.279Z,101820.00
2022-12-18T00:42:11.246Z,101825.00
2022-12-18T00:47:14.440Z,101824.80
2022-12-18T00:52:17.551Z,101832.60
2022-12-18T00:57:20.757Z,101848.40
2022-12-18T01:02:24.045Z,101848.00
2022-12-18T01:07:27.374Z,101850.80
2022-12-18T01:12:30.796Z,101852.80
2022-12-18T01:17:34.922Z,101849.60
2022-12-18T01:22:38.330Z,101855.40
2022-12-18T01:27:41.547Z,101860.40
2022-12-18T01:32:44.748Z,101872.60
2022-12-18T01:37:48.083Z,101874.80
2022-12-18T01:42:55.054Z,101891.40
2022-12-18T01:48:09.995Z,101899.80
2022-12-18T01:53:24.531Z,101904.60
2022-12-18T01:59:01.219Z,101901.80
2022-12-18T02:04:36.792Z,101898.20
2022-12-18T02:09:56.377Z,101895.80
2022-12-18T02:15:17.790Z,101900.20
2022-12-18T02:20:43.332Z,101915.20
2022-12-18T02:26:15.321Z,101912.20
2022-12-18T02:31:28.400Z,101924.40
2022-12-18T02:36:35.003Z,101921.40
2022-12-18T02:41:39.661Z,101919.20
2022-12-18T02:46:49.959Z,101925.80
2022-12-18T02:52:14.266Z,101935.80
2022-12-18T02:57:17.412Z,101948.80
2022-12-18T03:02:57.620Z,101954.80
2022-12-18T03:08:09.473Z,101967.20
2022-12-18T03:13:25.774Z,101970.60
2022-12-18T03:18:43.930Z,101975.80
2022-12-18T03:23:52.726Z,101981.60
2022-12-18T03:29:05.915Z,101985.40
2022-12-18T03:34:22.746Z,101990.60
2022-12-18T03:39:26.943Z,101989.20
2022-12-18T03:45:09.509Z,101993.60
2022-12-18T03:50:37.186Z,101999.20
2022-12-18T03:55:42.174Z,102008.20
2022-12-18T04:00:46.168Z,102013.40
2022-12-18T04:05:53.625Z,102008.80
2022-12-18T04:10:56.988Z,102012.40
2022-12-18T04:16:00.336Z,102018.40
2022-12-18T04:21:04.629Z,102024.80
2022-12-18T04:26:07.840Z,102035.00
2022-12-18T04:31:11.186Z,102030.00
2022-12-18T04:36:14.582Z,102031.20
2022-12-18T04:41:17.775Z,102040.40
2022-12-18T04:46:20.828Z,102059.60
2022-12-18T04:51:26.677Z,102064.60
2022-12-18T04:56:33.038Z,102069.80
2022-12-18T05:01:36.205Z,102065.60
2022-12-18T05:06:39.550Z,102067.40
2022-12-18T05:11:42.657Z,102066.40
2022-12-18T05:16:45.762Z,102073.80
2022-12-18T05:21:48.973Z,102080.40
2022-12-18T05:26:52.278Z,102089.80
2022-12-18T05:31:55.372Z,102092.00
2022-12-18T05:36:58.494Z,102094.00
2022-12-18T05:42:01.610Z,102100.80
2022-12-18T05:47:05.408Z,102111.80
2022-12-18T05:52:08.839Z,102110.60
2022-12-18T05:57:11.967Z,102118.60
2022-12-18T06:02:15.346Z,102127.20
2022-12-18T06:07:18.769Z,102125.00
2022-12-18T06:12:22.392Z,102130.20
2022-12-18T06:17:30.774Z,102137.80
2022-12-18T06:22:34.040Z,102138.60
2022-12-18T06:27:37.239Z,102150.40
2022-12-18T06:32:40.447Z,102148.20
2022-12-18T06:37:43.551Z,102149.20
2022-12-18T06:42:46.787Z,102157.20
2022-12-18T06:47:49.975Z,102163.20
2022-12-18T06:52:53.082Z,102164.00
2022-12-18T06:57:56.175Z,102180.40
2022-12-18T07:02:59.358Z,102176.80
2022-12-18T07:08:02.601Z,102191.40
2022-12-18T07:13:05.700Z,102208.20
2022-12-18T07:18:08.830Z,102205.60
2022-12-18T07:23:12.014Z,102221.60
2022-12-18T07:28:17.668Z,102229.80
2022-12-18T07:33:21.095Z,102227.20
2022-12-18T07:38:24.123Z,102237.20
2022-12-18T07:43:27.206Z,102238.40
2022-12-18T07:48:30.759Z,102243.00
2022-12-18T07:53:36.423Z,102247.20
2022-12-18T07:58:40.107Z,102255.00
2022-12-18T08:03:43.345Z,102244.60
2022-12-18T08:08:46.544Z,102258.80
2022-12-18T08:13:50.260Z,102255.60
2022-12-18T08:18:55.197Z,102254.20
2022-12-18T08:24:01.746Z,102248.80
2022-12-18T08:29:04.894Z,102265.80
2022-12-18T08:34:09.849Z,102274.80
2022-12-18T08:39:13.265Z,102283.40
2022-12-18T08:44:35.204Z,102294.00
2022-12-18T08:49:38.406Z,102305.40
2022-12-18T08:54:41.924Z,102297.20
2022-12-18T08:59:45.064Z,102300.60
2022-12-18T09:04:55.403Z,102307.40
2022-12-18T09:10:00.354Z,102318.60
2022-12-18T09:15:04.437Z,102326.80
2022-12-18T09:20:10.022Z,102333.60
2022-12-18T09:25:13.171Z,102318.20
2022-12-18T09:30:16.474Z,102325.20
2022-12-18T09:35:19.580Z,102329.60
2022-12-18T09:40:30.159Z,102337.60
2022-12-18T09:45:51.257Z,102337.60
2022-12-18T09:51:02.278Z,102340.60
2022-12-18T09:56:07.638Z,102346.20
2022-12-18T10:01:19.449Z,102343.80
2022-12-18T10:06:44.158Z,102340.60
2022-12-18T10:12:27.974Z,102320.20
2022-12-18T10:17:52.638Z,102329.00
2022-12-18T10:23:04.719Z,102326.00
2022-12-18T10:28:17.667Z,102337.40
2022-12-18T10:33:26.021Z,102328.80
2022-12-18T10:38:33.035Z,102325.80
2022-12-18T10:43:38.405Z,102322.80
2022-12-18T10:48:48.585Z,102324.00
2022-12-18T10:54:04.363Z,102319.40
2022-12-18T10:59:14.336Z,102317.80
2022-12-18T11:04:24.509Z,102323.80
2022-12-18T11:09:32.888Z,102333.60
2022-12-18T11:14:51.146Z,102324.40
2022-12-18T11:20:00.530Z,102325.00
2022-12-18T11:25:34.908Z,102320.20
2022-12-18T11:30:39.103Z,102331.80
2022-12-18T11:35:54.085Z,102343.00
2022-12-18T11:41:12.344Z,102337.60
2022-12-18T11:46:27.891Z,102343.80
2022-12-18T11:51:53.273Z,102339.20
2022-12-18T11:57:36.109Z,102333.80
2022-12-18T12:03:23.870Z,102355.00
2022-12-18T12:09:01.278Z,102369.40
2022-12-18T12:14:28.982Z,102370.60
2022-12-18T12:19:53.495Z,102368.40
2022-12-18T12:25:36.711Z,102380.00
2022-12-18T12:30:48.721Z,102382.80
2022-12-18T12:36:23.471Z,102396.40
2022-12-18T12:41:51.898Z,102394.80
2022-12-18T12:47:06.033Z,102392.60
2022-12-18T12:52:18.623Z,102386.20
2022-12-18T12:58:06.729Z,102387.20
2022-12-18T13:03:53.552Z,102393.80
2022-12-18T13:09:01.443Z,102389.60
2022-12-18T13:14:04.595Z,102393.40
2022-12-18T13:19:26.490Z,102407.00
2022-12-18T13:24:33.630Z,102408.60
2022-12-18T13:29:46.486Z,102418.80
2022-12-18T13:35:19.922Z,102422.20
2022-12-18T13:40:46.284Z,102419.20
2022-12-18T13:46:03.265Z,102429.60
2022-12-18T13:51:17.736Z,102423.40
2022-12-18T13:56:48.455Z,102425.80
2022-12-18T14:02:01.987Z,102439.40
2022-12-18T14:07:18.010Z,102446.60
2022-12-18T14:12:52.529Z,102461.00
2022-12-18T14:18:04.579Z,102469.60
2022-12-18T14:23:38.391Z,102472.60
2022-12-18T14:28:45.738Z,102484.40
2022-12-18T14:33:49.148Z,102489.00
2022-12-18T14:38:58.227Z,102491.20
2022-12-18T14:44:12.459Z,102490.80
2022-12-18T14:49:32.042Z,102486.00
2022-12-18T14:54:38.640Z,102495.20
2022-12-18T14:59:41.965Z,102490.60
2022-12-18T15:04:46.396Z,102486.60
2022-12-18T15:10:24.926Z,102493.00
2022-12-18T15:15:34.388Z,102495.80
2022-12-18T15:20:43.838Z,102496.20
2022-12-18T15:25:49.734Z,102498.20
2022-12-18T15:31:10.950Z,102499.80
2022-12-18T15:36:17.594Z,102492.60
2022-12-18T15:41:25.959Z,102496.80
2022-12-18T15:46:29.172Z,102494.20
2022-12-18T15:51:38.603Z,102489.80
2022-12-18T15:57:00.288Z,102482.20
2022-12-18T16:02:03.564Z,102485.00
2022-12-18T16:07:17.579Z,102492.60
2022-12-18T16:12:26.868Z,102488.80
2022-12-18T16:17:32.990Z,102485.20
2022-12-18T16:22:36.480Z,102491.00
2022-12-18T16:27:39.789Z,102490.60
2022-12-18T16:32:44.399Z,102499.60
2022-12-18T16:37:48.049Z,102492.60
2022-12-18T16:42:51.283Z,102495.40
2022-12-18T16:47:54.399Z,102494.40
2022-12-18T16:52:57.668Z,102486.80
2022-12-18T16:58:01.117Z,102496.60
2022-12-18T17:03:04.559Z,102493.20
2022-12-18T17:08:08.034Z,102496.40
2022-12-18T17:13:11.329Z,102505.60
2022-12-18T17:18:14.539Z,102524.80
2022-12-18T17:23:17.745Z,102544.60
2022-12-18T17:28:22.226Z,102535.00
2022-12-18T17:33:26.004Z,102524.20
2022-12-18T17:38:29.143Z,102523.40
2022-12-18T17:43:36.121Z,102518.00
2022-12-18T17:48:40.417Z,102510.80
2022-12-18T17:53:44.317Z,102491.20
2022-12-18T17:58:50.551Z,102497.80
2022-12-18T18:03:57.929Z,102484.60
2022-12-18T18:09:01.264Z,102483.40
2022-12-18T18:14:19.843Z,102502.00
2022-12-18T18:19:25.506Z,102478.80
2022-12-18T18:24:28.727Z,102471.20
2022-12-18T18:29:32.026Z,102465.80
2022-12-18T18:34:35.871Z,102482.20
2022-12-18T18:39:47.023Z,102482.60
2022-12-18T18:44:50.246Z,102486.60
2022-12-18T18:49:53.460Z,102504.20
2022-12-18T18:55:12.189Z,102506.60
2022-12-18T19:00:17.474Z,102510.40
2022-12-18T19:05:20.594Z,102501.40
2022-12-18T19:10:23.935Z,102486.40
2022-12-18T19:15:27.012Z,102496.00
2022-12-18T19:20:30.528Z,102498.20
2022-12-18T19:25:41.628Z,102495.40
2022-12-18T19:30:45.858Z,102496.80
2022-12-18T19:35:49.165Z,102512.80
2022-12-18T19:40:52.779Z,102514.00
2022-12-18T19:45:56.489Z,102523.40
2022-12-18T19:51:24.900Z,102528.40
2022-12-18T19:56:35.511Z,102529.80
2022-12-18T20:01:38.771Z,102541.00
2022-12-18T20:06:53.505Z,102537.00
2022-12-18T20:11:56.784Z,102524.00
2022-12-18T20:17:00.591Z,102524.40
2022-12-18T20:22:04.085Z,102520.40
2022-12-18T20:27:14.049Z,102515.40
2022-12-18T20:32:19.469Z,102519.00
2022-12-18T20:37:23.064Z,102517.80
2022-12-18T20:42:27.329Z,102513.60
2022-12-18T20:47:30.506Z,102519.00
2022-12-18T20:52:34.124Z,102520.20
2022-12-18T20:57:39.285Z,102528.40
2022-12-18T21:02:42.606Z,102532.80
2022-12-18T21:07:46.240Z,102530.00
2022-12-18T21:12:58.719Z,102513.00
2022-12-18T21:18:05.123Z,102490.20
2022-12-18T21:23:16.440Z,102488.80
2022-12-18T21:28:20.543Z,102488.40
2022-12-18T21:33:23.954Z,102481.80
2022-12-18T21:38:28.700Z,102478.40
2022-12-18T21:44:04.373Z,102473.40
2022-12-18T21:49:09.847Z,102479.80
2022-12-18T21:54:13.047Z,102482.80
2022-12-18T21:59:25.874Z,102497.80
2022-12-18T22:04:30.054Z,102496.60
2022-12-18T22:09:34.517Z,102501.20
2022-12-18T22:14:37.882Z,102505.00
2022-12-18T22:19:43.139Z,102502.80
2022-12-18T22:24:46.627Z,102510.80
2022-12-18T22:30:05.217Z,102500.80
2022-12-18T22:35:15.408Z,102498.60
2022-12-18T22:40:25.334Z,102495.80
2022-12-18T22:45:29.056Z,102492.80
2022-12-18T22:50:33.905Z,102501.20
2022-12-18T22:55:37.111Z,102495.60
2022-12-18T23:00:40.942Z,102492.00
2022-12-18T23:05:44.159Z,102507.80
2022-12-18T23:10:47.348Z,102510.80
2022-12-18T23:15:50.498Z,102511.60
2022-12-18T23:20:53.667Z,102512.60
2022-12-18T23:26:08.113Z,102500.60
2022-12-18T23:31:24.344Z,102513.60
2022-12-18T23:36:28.996Z,102509.00
2022-12-18T23:41:34.259Z,102506.80
2022-12-18T23:46:37.980Z,102510.80
2022-12-18T23:51:41.179Z,102506.80
2022-12-18T23:56:46.340Z,102496.60
